sensor_id;sensor_type;location;lat;lon;timestamp;pressure;altitude;pressure_sealevel;temperature;humidity
10510;BME280;5303;53.266;10.410;2022-07-29T00:00:52;101797.25;;;15.51;100.00
10510;BME280;5303;53.266;10.410;2022-07-29T00:03:18;101794.88;;;15.48;100.00
10510;BME280;5303;53.266;10.410;2022-07-29T00:05:43;101796.00;;;15.30;100.00
10510;BME280;5303;53.266;10.410;2022-07-29T00:08:09;101786.53;;;15.33;100.00
10510;BME280;5303;53.266;10.410;2022-07-29T00:10:34;101788.25;;;15.34;100.00
10510;BME280;5303;53.266;10.410;2022-07-29T00:13:00;101794.09;;;15.31;100.00
10510;BME280;5303;53.266;10.410;2022-07-29T00:15:25;101789.78;;;15.36;100.00
10510;BME280;5303;53.266;10.410;2022-07-29T00:17:51;101787.50;;;15.17;100.00
10510;BME280;5303;53.266;10.410;2022-07-29T00:20:16;101785.56;;;15.26;100.00
10510;BME280;5303;53.266;10.410;2022-07-29T00:22:42;101791.34;;;15.31;100.00
10510;BME280;5303;53.266;10.410;2022-07-29T00:25:07;101786.22;;;15.28;100.00
10510;BME280;5303;53.266;10.410;2022-07-29T00:27:36;101781.78;;;15.27;100.00
10510;BME280;5303;53.266;10.410;2022-07-29T00:30:03;101779.59;;;15.22;100.00
10510;BME280;5303;53.266;10.410;2022-07-29T00:32:28;101778.34;;;15.25;100.00
10510;BME280;5303;53.266;10.410;2022-07-29T00:34:54;101775.31;;;15.20;100.00
10510;BME280;5303;53.266;10.410;2022-07-29T00:37:37;101768.13;;;15.19;100.00
10510;BME280;5303;53.266;10.410;2022-07-29T00:40:03;101771.88;;;15.18;100.00
10510;BME280;5303;53.266;10.410;2022-07-29T00:42:28;101768.97;;;15.19;100.00
10510;BME280;5303;53.266;10.410;2022-07-29T00:44:54;101765.53;;;15.17;100.00
10510;BME280;5303;53.266;10.410;2022-07-29T00:47:19;101764.84;;;15.15;100.00
10510;BME280;5303;53.266;10.410;2022-07-29T00:49:44;101769.50;;;15.14;100.00
10510;BME280;5303;53.266;10.410;2022-07-29T00:52:11;101761.97;;;15.08;100.00
10510;BME280;5303;53.266;10.410;2022-07-29T00:54:38;101766.31;;;15.03;100.00
10510;BME280;5303;53.266;10.410;2022-07-29T00:57:06;101763.06;;;14.99;100.00
10510;BME280;5303;53.266;10.410;2022-07-29T00:59:33;101755.34;;;15.03;100.00
10510;BME280;5303;53.266;10.410;2022-07-29T01:01:58;101764.91;;;15.07;100.00
10510;BME280;5303;53.266;10.410;2022-07-29T01:04:24;101763.16;;;15.14;100.00
10510;BME280;5303;53.266;10.410;2022-07-29T01:06:50;101762.69;;;15.02;100.00
10510;BME280;5303;53.266;10.410;2022-07-29T01:09:17;101754.84;;;14.99;100.00
10510;BME280;5303;53.266;10.410;2022-07-29T01:11:43;101755.56;;;14.93;100.00
10510;BME280;5303;53.266;10.410;2022-07-29T01:14:10;101761.53;;;14.97;100.00
10510;BME280;5303;53.266;10.410;2022-07-29T01:16:46;101758.31;;;14.93;100.00
10510;BME280;5303;53.266;10.410;2022-07-29T01:22:01;101743.75;;;14.84;100.00
10510;BME280;5303;53.266;10.410;2022-07-29T01:24:46;101744.94;;;14.90;100.00
10510;BME280;5303;53.266;10.410;2022-07-29T01:30:07;101744.53;;;14.62;100.00
10510;BME280;5303;53.266;10.410;2022-07-29T01:32:35;101739.19;;;14.68;100.00
10510;BME280;5303;53.266;10.410;2022-07-29T01:37:34;101743.34;;;14.56;100.00
10510;BME280;5303;53.266;10.410;2022-07-29T01:40:03;101739.97;;;14.54;100.00
10510;BME280;5303;53.266;10.410;2022-07-29T01:42:38;101736.66;;;14.67;100.00
10510;BME280;5303;53.266;10.410;2022-07-29T01:48:02;101725.69;;;14.67;100.00
10510;BME280;5303;53.266;10.410;2022-07-29T01:50:34;101729.72;;;14.79;100.00
10510;BME280;5303;53.266;10.410;2022-07-29T01:53:04;101734.56;;;14.69;100.00
10510;BME280;5303;53.266;10.410;2022-07-29T01:55:34;101732.47;;;14.79;100.00
10510;BME280;5303;53.266;10.410;2022-07-29T01:58:03;101721.91;;;14.68;100.00
10510;BME280;5303;53.266;10.410;2022-07-29T02:00:31;101722.75;;;14.68;100.00
10510;BME280;5303;53.266;10.410;2022-07-29T02:02:59;101721.91;;;14.68;100.00
10510;BME280;5303;53.266;10.410;2022-07-29T02:05:27;101718.13;;;14.69;100.00
10510;BME280;5303;53.266;10.410;2022-07-29T02:07:53;101722.81;;;14.52;100.00
10510;BME280;5303;53.266;10.410;2022-07-29T02:10:22;101712.84;;;14.59;100.00
10510;BME280;5303;53.266;10.410;2022-07-29T02:12:49;101714.38;;;14.62;100.00
10510;BME280;5303;53.266;10.410;2022-07-29T02:15:16;101707.84;;;14.63;100.00
10510;BME280;5303;53.266;10.410;2022-07-29T02:17:45;101712.13;;;14.65;100.00
10510;BME280;5303;53.266;10.410;2022-07-29T02:20:13;101702.59;;;14.53;100.00
10510;BME280;5303;53.266;10.410;2022-07-29T02:22:41;101703.41;;;14.62;100.00
10510;BME280;5303;53.266;10.410;2022-07-29T02:25:10;101701.31;;;14.72;100.00
10510;BME280;5303;53.266;10.410;2022-07-29T02:27:37;101706.66;;;14.57;100.00
10510;BME280;5303;53.266;10.410;2022-07-29T02:30:04;101707.69;;;14.64;100.00
10510;BME280;5303;53.266;10.410;2022-07-29T02:32:31;101703.75;;;14.67;100.00
10510;BME280;5303;53.266;10.410;2022-07-29T02:35:00;101702.00;;;14.74;100.00
10510;BME280;5303;53.266;10.410;2022-07-29T02:37:27;101708.47;;;14.81;100.00
10510;BME280;5303;53.266;10.410;2022-07-29T02:39:54;101709.16;;;14.83;100.00
10510;BME280;5303;53.266;10.410;2022-07-29T02:42:22;101707.38;;;14.90;100.00
10510;BME280;5303;53.266;10.410;2022-07-29T02:44:48;101700.50;;;14.95;100.00
10510;BME280;5303;53.266;10.410;2022-07-29T02:47:31;101708.78;;;14.86;100.00
10510;BME280;5303;53.266;10.410;2022-07-29T02:50:22;101701.06;;;14.90;100.00
10510;BME280;5303;53.266;10.410;2022-07-29T02:52:54;101700.72;;;14.85;100.00
10510;BME280;5303;53.266;10.410;2022-07-29T02:55:29;101701.56;;;14.85;100.00
10510;BME280;5303;53.266;10.410;2022-07-29T02:58:02;101694.91;;;14.80;100.00
10510;BME280;5303;53.266;10.410;2022-07-29T03:00:30;101700.22;;;14.81;100.00
10510;BME280;5303;53.266;10.410;2022-07-29T03:02:58;101694.25;;;14.78;100.00
10510;BME280;5303;53.266;10.410;2022-07-29T03:05:25;101690.56;;;14.62;100.00
10510;BME280;5303;53.266;10.410;2022-07-29T03:08:03;101686.59;;;14.65;100.00
10510;BME280;5303;53.266;10.410;2022-07-29T03:10:29;101689.84;;;14.68;100.00
10510;BME280;5303;53.266;10.410;2022-07-29T03:12:55;101688.63;;;14.71;100.00
10510;BME280;5303;53.266;10.410;2022-07-29T03:15:21;101691.25;;;14.56;100.00
10510;BME280;5303;53.266;10.410;2022-07-29T03:17:47;101684.00;;;14.72;100.00
10510;BME280;5303;53.266;10.410;2022-07-29T03:20:13;101692.94;;;14.65;100.00
10510;BME280;5303;53.266;10.410;2022-07-29T03:22:41;101694.63;;;14.75;100.00
10510;BME280;5303;53.266;10.410;2022-07-29T03:25:10;101685.91;;;14.71;100.00
10510;BME280;5303;53.266;10.410;2022-07-29T03:27:35;101682.72;;;14.82;100.00
10510;BME280;5303;53.266;10.410;2022-07-29T03:30:00;101679.44;;;14.64;100.00
10510;BME280;5303;53.266;10.410;2022-07-29T03:32:26;101674.22;;;14.77;100.00
10510;BME280;5303;53.266;10.410;2022-07-29T03:34:51;101684.09;;;14.86;100.00
10510;BME280;5303;53.266;10.410;2022-07-29T03:37:16;101681.84;;;14.90;100.00
10510;BME280;5303;53.266;10.410;2022-07-29T03:39:42;101687.13;;;14.91;100.00
10510;BME280;5303;53.266;10.410;2022-07-29T03:42:10;101675.19;;;14.84;100.00
10510;BME280;5303;53.266;10.410;2022-07-29T03:44:37;101678.66;;;14.78;100.00
10510;BME280;5303;53.266;10.410;2022-07-29T03:47:03;101677.81;;;14.78;100.00
10510;BME280;5303;53.266;10.410;2022-07-29T03:49:32;101678.66;;;14.78;100.00
10510;BME280;5303;53.266;10.410;2022-07-29T03:52:00;101675.34;;;14.83;100.00
10510;BME280;5303;53.266;10.410;2022-07-29T03:54:25;101677.94;;;14.84;100.00
10510;BME280;5303;53.266;10.410;2022-07-29T03:56:52;101674.81;;;14.87;100.00
10510;BME280;5303;53.266;10.410;2022-07-29T03:59:18;101676.16;;;14.91;100.00
10510;BME280;5303;53.266;10.410;2022-07-29T04:01:46;101670.16;;;14.96;100.00
10510;BME280;5303;53.266;10.410;2022-07-29T04:04:11;101668.63;;;14.94;100.00
10510;BME280;5303;53.266;10.410;2022-07-29T04:06:42;101674.28;;;14.92;100.00
10510;BME280;5303;53.266;10.410;2022-07-29T04:09:08;101668.91;;;14.99;100.00
10510;BME280;5303;53.266;10.410;2022-07-29T04:11:34;101668.78;;;14.92;100.00
10510;BME280;5303;53.266;10.410;2022-07-29T04:14:00;101667.44;;;14.88;100.00
10510;BME280;5303;53.266;10.410;2022-07-29T04:16:25;101667.66;;;14.86;100.00
10510;BME280;5303;53.266;10.410;2022-07-29T04:18:51;101664.16;;;14.93;100.00
10510;BME280;5303;53.266;10.410;2022-07-29T04:21:16;101665.63;;;14.80;100.00
10510;BME280;5303;53.266;10.410;2022-07-29T04:23:41;101669.56;;;14.78;100.00
10510;BME280;5303;53.266;10.410;2022-07-29T04:26:10;101664.94;;;14.78;100.00
10510;BME280;5303;53.266;10.410;2022-07-29T04:28:35;101660.88;;;14.97;100.00
10510;BME280;5303;53.266;10.410;2022-07-29T04:31:01;101664.97;;;15.01;100.00
10510;BME280;5303;53.266;10.410;2022-07-29T04:33:26;101662.22;;;15.01;100.00
10510;BME280;5303;53.266;10.410;2022-07-29T04:35:52;101663.72;;;15.12;100.00
10510;BME280;5303;53.266;10.410;2022-07-29T04:38:17;101666.38;;;15.20;100.00
10510;BME280;5303;53.266;10.410;2022-07-29T04:40:42;101662.81;;;15.11;100.00
10510;BME280;5303;53.266;10.410;2022-07-29T04:43:08;101669.25;;;15.04;100.00
10510;BME280;5303;53.266;10.410;2022-07-29T04:45:33;101673.44;;;15.14;100.00
10510;BME280;5303;53.266;10.410;2022-07-29T04:47:58;101669.13;;;15.20;100.00
10510;BME280;5303;53.266;10.410;2022-07-29T04:50:23;101676.97;;;15.23;100.00
10510;BME280;5303;53.266;10.410;2022-07-29T04:52:49;101669.34;;;15.33;100.00
10510;BME280;5303;53.266;10.410;2022-07-29T04:55:14;101678.38;;;15.42;100.00
10510;BME280;5303;53.266;10.410;2022-07-29T04:57:39;101678.56;;;15.41;100.00
10510;BME280;5303;53.266;10.410;2022-07-29T05:00:06;101677.69;;;15.40;100.00
10510;BME280;5303;53.266;10.410;2022-07-29T05:02:32;101681.94;;;15.66;100.00
10510;BME280;5303;53.266;10.410;2022-07-29T05:04:58;101682.41;;;15.77;100.00
10510;BME280;5303;53.266;10.410;2022-07-29T05:07:23;101680.69;;;15.91;100.00
10510;BME280;5303;53.266;10.410;2022-07-29T05:09:48;101686.59;;;16.03;100.00
10510;BME280;5303;53.266;10.410;2022-07-29T05:12:14;101681.06;;;15.88;100.00
10510;BME280;5303;53.266;10.410;2022-07-29T05:14:39;101679.47;;;15.94;100.00
10510;BME280;5303;53.266;10.410;2022-07-29T05:17:04;101682.66;;;15.82;100.00
10510;BME280;5303;53.266;10.410;2022-07-29T05:19:30;101685.81;;;15.79;100.00
10510;BME280;5303;53.266;10.410;2022-07-29T05:21:55;101689.19;;;15.67;100.00
10510;BME280;5303;53.266;10.410;2022-07-29T05:24:21;101691.47;;;15.78;100.00
10510;BME280;5303;53.266;10.410;2022-07-29T05:26:46;101690.75;;;15.61;100.00
10510;BME280;5303;53.266;10.410;2022-07-29T05:29:11;101694.53;;;15.83;100.00
10510;BME280;5303;53.266;10.410;2022-07-29T05:31:36;101693.28;;;15.86;100.00
10510;BME280;5303;53.266;10.410;2022-07-29T05:34:02;101685.94;;;16.01;100.00
10510;BME280;5303;53.266;10.410;2022-07-29T05:36:27;101689.63;;;16.08;100.00
10510;BME280;5303;53.266;10.410;2022-07-29T05:38:52;101683.38;;;15.99;100.00
10510;BME280;5303;53.266;10.410;2022-07-29T05:41:18;101691.84;;;15.75;100.00
10510;BME280;5303;53.266;10.410;2022-07-29T05:43:44;101679.00;;;15.90;100.00
10510;BME280;5303;53.266;10.410;2022-07-29T05:46:09;101682.91;;;15.96;100.00
10510;BME280;5303;53.266;10.410;2022-07-29T05:48:34;101684.97;;;15.94;100.00
10510;BME280;5303;53.266;10.410;2022-07-29T05:51:00;101680.06;;;15.89;100.00
10510;BME280;5303;53.266;10.410;2022-07-29T05:53:25;101691.16;;;15.96;100.00
10510;BME280;5303;53.266;10.410;2022-07-29T05:55:51;101683.94;;;16.10;100.00
10510;BME280;5303;53.266;10.410;2022-07-29T05:58:17;101683.09;;;16.09;100.00
10510;BME280;5303;53.266;10.410;2022-07-29T06:00:42;101685.28;;;15.99;100.00
10510;BME280;5303;53.266;10.410;2022-07-29T06:03:07;101683.28;;;16.07;100.00
10510;BME280;5303;53.266;10.410;2022-07-29T06:05:33;101677.13;;;16.20;100.00
10510;BME280;5303;53.266;10.410;2022-07-29T06:07:58;101677.59;;;16.39;100.00
10510;BME280;5303;53.266;10.410;2022-07-29T06:10:23;101678.28;;;16.41;100.00
10510;BME280;5303;53.266;10.410;2022-07-29T06:12:49;101684.78;;;16.40;100.00
10510;BME280;5303;53.266;10.410;2022-07-29T06:15:15;101680.81;;;16.27;100.00
10510;BME280;5303;53.266;10.410;2022-07-29T06:17:40;101678.34;;;16.33;100.00
10510;BME280;5303;53.266;10.410;2022-07-29T06:20:06;101682.81;;;16.34;100.00
10510;BME280;5303;53.266;10.410;2022-07-29T06:22:32;101683.84;;;16.47;100.00
10510;BME280;5303;53.266;10.410;2022-07-29T06:24:58;101684.03;;;16.46;100.00
10510;BME280;5303;53.266;10.410;2022-07-29T06:27:23;101680.63;;;16.44;100.00
10510;BME280;5303;53.266;10.410;2022-07-29T06:29:48;101681.75;;;16.64;100.00
10510;BME280;5303;53.266;10.410;2022-07-29T06:32:14;101678.31;;;16.62;100.00
10510;BME280;5303;53.266;10.410;2022-07-29T06:34:39;101672.53;;;16.87;100.00
10510;BME280;5303;53.266;10.410;2022-07-29T06:37:08;101680.34;;;16.53;100.00
10510;BME280;5303;53.266;10.410;2022-07-29T06:39:37;101676.63;;;16.46;100.00
10510;BME280;5303;53.266;10.410;2022-07-29T06:42:04;101676.41;;;16.63;100.00
10510;BME280;5303;53.266;10.410;2022-07-29T06:44:29;101668.84;;;16.80;100.00
10510;BME280;5303;53.266;10.410;2022-07-29T06:46:55;101670.34;;;16.67;100.00
10510;BME280;5303;53.266;10.410;2022-07-29T06:49:21;101672.81;;;16.62;100.00
10510;BME280;5303;53.266;10.410;2022-07-29T06:51:47;101670.28;;;16.61;100.00
10510;BME280;5303;53.266;10.410;2022-07-29T06:54:12;101670.44;;;16.74;100.00
10510;BME280;5303;53.266;10.410;2022-07-29T06:56:37;101669.84;;;16.93;100.00
10510;BME280;5303;53.266;10.410;2022-07-29T06:59:03;101673.44;;;16.94;100.00
10510;BME280;5303;53.266;10.410;2022-07-29T07:01:29;101666.00;;;16.73;100.00
10510;BME280;5303;53.266;10.410;2022-07-29T07:03:54;101664.88;;;16.82;100.00
10510;BME280;5303;53.266;10.410;2022-07-29T07:06:19;101665.50;;;16.84;100.00
10510;BME280;5303;53.266;10.410;2022-07-29T07:08:44;101657.38;;;16.97;100.00
10510;BME280;5303;53.266;10.410;2022-07-29T07:11:10;101653.81;;;17.18;100.00
10510;BME280;5303;53.266;10.410;2022-07-29T07:13:35;101660.16;;;17.19;100.00
10510;BME280;5303;53.266;10.410;2022-07-29T07:16:01;101653.59;;;17.41;100.00
10510;BME280;5303;53.266;10.410;2022-07-29T07:18:26;101656.25;;;17.28;100.00
10510;BME280;5303;53.266;10.410;2022-07-29T07:20:53;101655.69;;;17.39;100.00
10510;BME280;5303;53.266;10.410;2022-07-29T07:23:18;101653.53;;;17.56;100.00
10510;BME280;5303;53.266;10.410;2022-07-29T07:25:43;101645.69;;;17.81;100.00
10510;BME280;5303;53.266;10.410;2022-07-29T07:28:09;101650.53;;;18.07;100.00
10510;BME280;5303;53.266;10.410;2022-07-29T07:30:34;101649.75;;;18.20;100.00
10510;BME280;5303;53.266;10.410;2022-07-29T07:33:00;101654.91;;;18.30;100.00
10510;BME280;5303;53.266;10.410;2022-07-29T07:35:25;101659.38;;;18.31;100.00
10510;BME280;5303;53.266;10.410;2022-07-29T07:37:53;101661.13;;;18.10;100.00
10510;BME280;5303;53.266;10.410;2022-07-29T07:40:18;101654.84;;;18.23;100.00
10510;BME280;5303;53.266;10.410;2022-07-29T07:42:44;101656.13;;;18.21;100.00
10510;BME280;5303;53.266;10.410;2022-07-29T07:45:09;101662.56;;;18.34;100.00
10510;BME280;5303;53.266;10.410;2022-07-29T07:47:36;101650.75;;;18.47;100.00
10510;BME280;5303;53.266;10.410;2022-07-29T07:50:05;101648.78;;;18.76;100.00
10510;BME280;5303;53.266;10.410;2022-07-29T07:52:32;101650.56;;;18.55;100.00
10510;BME280;5303;53.266;10.410;2022-07-29T07:54:58;101646.00;;;18.76;100.00
10510;BME280;5303;53.266;10.410;2022-07-29T07:57:23;101650.91;;;18.87;100.00
10510;BME280;5303;53.266;10.410;2022-07-29T07:59:49;101647.16;;;19.01;100.00
10510;BME280;5303;53.266;10.410;2022-07-29T08:02:14;101644.19;;;19.09;100.00
10510;BME280;5303;53.266;10.410;2022-07-29T08:04:40;101638.06;;;19.27;100.00
10510;BME280;5303;53.266;10.410;2022-07-29T08:07:06;101631.19;;;18.97;100.00
10510;BME280;5303;53.266;10.410;2022-07-29T08:09:33;101628.03;;;19.06;100.00
10510;BME280;5303;53.266;10.410;2022-07-29T08:11:59;101637.19;;;19.20;100.00
10510;BME280;5303;53.266;10.410;2022-07-29T08:14:28;101636.13;;;19.35;100.00
10510;BME280;5303;53.266;10.410;2022-07-29T08:16:53;101630.84;;;19.33;100.00
10510;BME280;5303;53.266;10.410;2022-07-29T08:19:20;101627.22;;;19.46;100.00
10510;BME280;5303;53.266;10.410;2022-07-29T08:21:45;101636.38;;;19.66;100.00
10510;BME280;5303;53.266;10.410;2022-07-29T08:24:10;101633.16;;;19.89;100.00
10510;BME280;5303;53.266;10.410;2022-07-29T08:26:54;101636.09;;;20.21;100.00
10510;BME280;5303;53.266;10.410;2022-07-29T08:29:19;101638.97;;;20.46;100.00
10510;BME280;5303;53.266;10.410;2022-07-29T08:31:45;101634.75;;;20.37;100.00
10510;BME280;5303;53.266;10.410;2022-07-29T08:34:10;101637.34;;;20.25;100.00
10510;BME280;5303;53.266;10.410;2022-07-29T08:36:37;101630.25;;;20.49;100.00
10510;BME280;5303;53.266;10.410;2022-07-29T08:39:02;101629.94;;;20.77;100.00
10510;BME280;5303;53.266;10.410;2022-07-29T08:41:28;101623.47;;;20.90;97.10
10510;BME280;5303;53.266;10.410;2022-07-29T08:43:53;101627.84;;;21.04;96.46
10510;BME280;5303;53.266;10.410;2022-07-29T08:46:20;101628.53;;;21.25;95.32
10510;BME280;5303;53.266;10.410;2022-07-29T08:48:45;101619.53;;;21.04;93.80
10510;BME280;5303;53.266;10.410;2022-07-29T08:51:17;101620.72;;;21.15;93.50
10510;BME280;5303;53.266;10.410;2022-07-29T08:53:43;101620.91;;;21.20;89.47
10510;BME280;5303;53.266;10.410;2022-07-29T08:56:13;101623.19;;;21.30;89.11
10510;BME280;5303;53.266;10.410;2022-07-29T08:58:39;101618.34;;;21.50;90.99
10510;BME280;5303;53.266;10.410;2022-07-29T09:01:07;101620.53;;;21.48;89.52
10510;BME280;5303;53.266;10.410;2022-07-29T09:03:35;101623.28;;;21.48;84.71
10510;BME280;5303;53.266;10.410;2022-07-29T09:06:02;101614.94;;;21.73;84.16
10510;BME280;5303;53.266;10.410;2022-07-29T09:08:28;101610.66;;;21.96;83.76
10510;BME280;5303;53.266;10.410;2022-07-29T09:11:00;101613.97;;;21.86;81.00
10510;BME280;5303;53.266;10.410;2022-07-29T09:13:34;101609.00;;;22.13;79.33
10510;BME280;5303;53.266;10.410;2022-07-29T09:16:02;101610.63;;;22.39;80.47
10510;BME280;5303;53.266;10.410;2022-07-29T09:18:45;101602.50;;;22.56;75.78
10510;BME280;5303;53.266;10.410;2022-07-29T09:21:17;101600.72;;;22.62;74.73
10510;BME280;5303;53.266;10.410;2022-07-29T09:24:11;101599.03;;;22.61;73.94
10510;BME280;5303;53.266;10.410;2022-07-29T09:26:43;101592.56;;;22.78;73.35
10510;BME280;5303;53.266;10.410;2022-07-29T09:29:18;101592.88;;;22.59;72.91
10510;BME280;5303;53.266;10.410;2022-07-29T09:31:46;101586.56;;;22.82;70.72
10510;BME280;5303;53.266;10.410;2022-07-29T09:34:14;101594.03;;;22.99;69.63
10510;BME280;5303;53.266;10.410;2022-07-29T09:36:47;101594.44;;;23.27;68.76
10510;BME280;5303;53.266;10.410;2022-07-29T09:39:13;101594.09;;;23.35;69.07
10510;BME280;5303;53.266;10.410;2022-07-29T09:41:52;101600.22;;;23.13;67.88
10510;BME280;5303;53.266;10.410;2022-07-29T09:44:19;101587.84;;;23.51;68.04
10510;BME280;5303;53.266;10.410;2022-07-29T09:46:59;101597.41;;;23.79;65.78
10510;BME280;5303;53.266;10.410;2022-07-29T09:49:31;101597.63;;;23.65;62.13
10510;BME280;5303;53.266;10.410;2022-07-29T09:52:07;101597.38;;;23.55;63.06
10510;BME280;5303;53.266;10.410;2022-07-29T09:54:34;101590.38;;;23.41;64.22
10510;BME280;5303;53.266;10.410;2022-07-29T09:57:08;101591.09;;;23.48;64.46
10510;BME280;5303;53.266;10.410;2022-07-29T09:59:37;101586.03;;;23.68;62.60
10510;BME280;5303;53.266;10.410;2022-07-29T10:02:12;101588.69;;;23.87;61.91
10510;BME280;5303;53.266;10.410;2022-07-29T10:04:42;101594.13;;;23.82;61.63
10510;BME280;5303;53.266;10.410;2022-07-29T10:07:08;101584.66;;;23.59;61.24
10510;BME280;5303;53.266;10.410;2022-07-29T10:09:35;101589.16;;;24.07;60.80
10510;BME280;5303;53.266;10.410;2022-07-29T10:12:11;101585.19;;;23.91;58.78
10510;BME280;5303;53.266;10.410;2022-07-29T10:14:41;101585.16;;;23.68;59.74
10510;BME280;5303;53.266;10.410;2022-07-29T10:17:08;101589.28;;;24.01;60.17
10510;BME280;5303;53.266;10.410;2022-07-29T10:19:36;101577.22;;;23.95;59.26
10510;BME280;5303;53.266;10.410;2022-07-29T10:22:05;101582.44;;;24.32;58.79
10510;BME280;5303;53.266;10.410;2022-07-29T10:24:32;101571.66;;;24.47;58.57
10510;BME280;5303;53.266;10.410;2022-07-29T10:26:59;101571.31;;;24.32;57.23
10510;BME280;5303;53.266;10.410;2022-07-29T10:29:25;101557.53;;;24.66;57.54
10510;BME280;5303;53.266;10.410;2022-07-29T10:35:01;101557.66;;;24.59;55.11
10510;BME280;5303;53.266;10.410;2022-07-29T10:40:48;101542.88;;;24.87;54.81
10510;BME280;5303;53.266;10.410;2022-07-29T10:43:37;101539.75;;;25.00;53.41
10510;BME280;5303;53.266;10.410;2022-07-29T10:46:06;101539.25;;;24.86;52.65
10510;BME280;5303;53.266;10.410;2022-07-29T10:48:32;101527.72;;;25.12;52.29
10510;BME280;5303;53.266;10.410;2022-07-29T10:50:58;101535.13;;;25.06;51.72
10510;BME280;5303;53.266;10.410;2022-07-29T10:53:50;101535.59;;;24.69;51.35
10510;BME280;5303;53.266;10.410;2022-07-29T10:56:32;101539.22;;;24.41;51.39
10510;BME280;5303;53.266;10.410;2022-07-29T11:01:52;101529.38;;;24.79;48.88
10510;BME280;5303;53.266;10.410;2022-07-29T11:07:08;101524.50;;;25.20;47.88
10510;BME280;5303;53.266;10.410;2022-07-29T11:09:33;101527.56;;;25.18;47.35
10510;BME280;5303;53.266;10.410;2022-07-29T11:11:58;101520.13;;;25.24;48.79
10510;BME280;5303;53.266;10.410;2022-07-29T11:17:17;101520.53;;;24.99;46.78
10510;BME280;5303;53.266;10.410;2022-07-29T11:19:43;101527.72;;;25.28;47.47
10510;BME280;5303;53.266;10.410;2022-07-29T11:22:10;101518.50;;;25.45;46.53
10510;BME280;5303;53.266;10.410;2022-07-29T11:24:36;101518.88;;;25.15;46.60
10510;BME280;5303;53.266;10.410;2022-07-29T11:29:58;101516.41;;;25.18;45.69
10510;BME280;5303;53.266;10.410;2022-07-29T11:32:36;101510.72;;;25.47;46.04
10510;BME280;5303;53.266;10.410;2022-07-29T11:37:40;101507.91;;;25.64;45.26
10510;BME280;5303;53.266;10.410;2022-07-29T11:45:26;101503.56;;;25.73;44.28
10510;BME280;5303;53.266;10.410;2022-07-29T11:47:58;101507.00;;;25.41;43.91
10510;BME280;5303;53.266;10.410;2022-07-29T11:50:35;101503.47;;;25.68;44.66
10510;BME280;5303;53.266;10.410;2022-07-29T11:53:03;101501.53;;;25.85;44.68
10510;BME280;5303;53.266;10.410;2022-07-29T11:55:28;101498.41;;;25.82;43.79
10510;BME280;5303;53.266;10.410;2022-07-29T11:57:55;101495.84;;;25.80;44.39
10510;BME280;5303;53.266;10.410;2022-07-29T12:00:33;101489.78;;;25.83;44.34
10510;BME280;5303;53.266;10.410;2022-07-29T12:03:02;101491.72;;;25.83;44.23
10510;BME280;5303;53.266;10.410;2022-07-29T12:08:10;101490.94;;;25.87;43.50
10510;BME280;5303;53.266;10.410;2022-07-29T12:10:37;101486.59;;;25.96;44.07
10510;BME280;5303;53.266;10.410;2022-07-29T12:13:03;101490.25;;;25.80;43.18
10510;BME280;5303;53.266;10.410;2022-07-29T12:15:28;101483.28;;;25.99;43.71
10510;BME280;5303;53.266;10.410;2022-07-29T12:17:54;101480.03;;;26.08;43.11
10510;BME280;5303;53.266;10.410;2022-07-29T12:20:27;101468.56;;;26.31;43.07
10510;BME280;5303;53.266;10.410;2022-07-29T12:22:54;101473.00;;;26.27;43.33
10510;BME280;5303;53.266;10.410;2022-07-29T12:25:20;101477.78;;;26.32;43.34
10510;BME280;5303;53.266;10.410;2022-07-29T12:27:47;101475.06;;;26.37;43.05
10510;BME280;5303;53.266;10.410;2022-07-29T12:30:22;101471.94;;;26.55;42.53
10510;BME280;5303;53.266;10.410;2022-07-29T12:32:48;101470.94;;;26.17;42.44
10510;BME280;5303;53.266;10.410;2022-07-29T12:35:19;101467.47;;;26.32;42.88
10510;BME280;5303;53.266;10.410;2022-07-29T12:37:47;101466.16;;;26.40;43.00
10510;BME280;5303;53.266;10.410;2022-07-29T12:40:15;101466.13;;;26.62;42.95
10510;BME280;5303;53.266;10.410;2022-07-29T12:43:04;101456.91;;;26.61;42.51
10510;BME280;5303;53.266;10.410;2022-07-29T12:45:30;101464.88;;;26.80;41.48
10510;BME280;5303;53.266;10.410;2022-07-29T12:47:56;101451.38;;;26.44;42.01
10510;BME280;5303;53.266;10.410;2022-07-29T12:50:21;101458.31;;;26.64;42.11
10510;BME280;5303;53.266;10.410;2022-07-29T12:52:47;101453.00;;;26.62;42.62
10510;BME280;5303;53.266;10.410;2022-07-29T12:55:12;101449.41;;;26.67;41.50
10510;BME280;5303;53.266;10.410;2022-07-29T12:57:45;101449.47;;;26.72;41.34
10510;BME280;5303;53.266;10.410;2022-07-29T13:00:12;101445.97;;;26.92;41.79
10510;BME280;5303;53.266;10.410;2022-07-29T13:02:39;101431.69;;;26.56;42.28
10510;BME280;5303;53.266;10.410;2022-07-29T13:05:07;101434.22;;;26.58;42.71
10510;BME280;5303;53.266;10.410;2022-07-29T13:07:34;101436.56;;;27.03;41.67
10510;BME280;5303;53.266;10.410;2022-07-29T13:10:17;101439.28;;;26.93;40.94
10510;BME280;5303;53.266;10.410;2022-07-29T13:13:08;101426.06;;;26.83;41.57
10510;BME280;5303;53.266;10.410;2022-07-29T13:15:35;101429.38;;;26.48;41.35
10510;BME280;5303;53.266;10.410;2022-07-29T13:18:00;101423.19;;;26.73;41.16
10510;BME280;5303;53.266;10.410;2022-07-29T13:20:28;101419.31;;;26.79;40.70
10510;BME280;5303;53.266;10.410;2022-07-29T13:22:58;101420.47;;;26.83;42.17
10510;BME280;5303;53.266;10.410;2022-07-29T13:25:26;101423.16;;;27.05;42.22